sensor_id;sensor_type;location;lat;lon;timestamp;P1;durP1;ratioP1;P2;durP2;ratioP2
56541;SDS011;42438;53.174;6.730;2022-12-17T00:01:38;67.15;;;20.13;;
56541;SDS011;42438;53.174;6.730;2022-12-17T00:04:28;61.28;;;19.98;;
56541;SDS011;42438;53.174;6.730;2022-12-17T00:07:17;51.63;;;18.88;;
56541;SDS011;42438;53.174;6.730;2022-12-17T00:10:07;60.50;;;22.73;;
56541;SDS011;42438;53.174;6.730;2022-12-17T00:12:56;57.92;;;20.05;;
56541;SDS011;42438;53.174;6.730;2022-12-17T00:15:51;59.20;;;20.75;;
56541;SDS011;42438;53.174;6.730;2022-12-17T00:18:41;54.58;;;20.80;;
56541;SDS011;42438;53.174;6.730;2022-12-17T00:21:30;52.50;;;19.50;;
56541;SDS011;42438;53.174;6.730;2022-12-17T00:24:19;76.78;;;22.42;;
56541;SDS011;42438;53.174;6.730;2022-12-17T00:27:08;55.30;;;21.05;;
56541;SDS011;42438;53.174;6.730;2022-12-17T00:29:58;59.33;;;20.63;;
56541;SDS011;42438;53.174;6.730;2022-12-17T00:32:47;68.25;;;21.83;;
56541;SDS011;42438;53.174;6.730;2022-12-17T00:35:37;55.95;;;21.83;;
56541;SDS011;42438;53.174;6.730;2022-12-17T00:38:26;62.88;;;21.80;;
56541;SDS011;42438;53.174;6.730;2022-12-17T00:41:15;57.15;;;21.30;;
56541;SDS011;42438;53.174;6.730;2022-12-17T00:44:05;55.72;;;21.60;;
56541;SDS011;42438;53.174;6.730;2022-12-17T00:46:54;59.58;;;21.10;;
56541;SDS011;42438;53.174;6.730;2022-12-17T00:49:43;60.88;;;21.40;;
56541;SDS011;42438;53.174;6.730;2022-12-17T00:52:33;59.50;;;22.45;;
56541;SDS011;42438;53.174;6.730;2022-12-17T00:55:23;57.80;;;20.10;;
56541;SDS011;42438;53.174;6.730;2022-12-17T00:58:12;63.60;;;21.48;;
56541;SDS011;42438;53.174;6.730;2022-12-17T01:01:01;51.35;;;21.55;;
56541;SDS011;42438;53.174;6.730;2022-12-17T01:04:11;51.33;;;20.23;;
56541;SDS011;42438;53.174;6.730;2022-12-17T01:07:00;61.00;;;22.10;;
56541;SDS011;42438;53.174;6.730;2022-12-17T01:09:49;54.10;;;21.40;;
56541;SDS011;42438;53.174;6.730;2022-12-17T01:12:39;65.32;;;22.90;;
56541;SDS011;42438;53.174;6.730;2022-12-17T01:15:28;58.38;;;21.08;;
56541;SDS011;42438;53.174;6.730;2022-12-17T01:18:18;57.55;;;21.45;;
56541;SDS011;42438;53.174;6.730;2022-12-17T01:21:07;65.93;;;21.08;;
56541;SDS011;42438;53.174;6.730;2022-12-17T01:23:57;58.25;;;22.77;;
56541;SDS011;42438;53.174;6.730;2022-12-17T01:26:46;65.50;;;22.42;;
56541;SDS011;42438;53.174;6.730;2022-12-17T01:29:36;63.92;;;22.73;;
56541;SDS011;42438;53.174;6.730;2022-12-17T01:32:25;67.40;;;21.50;;
56541;SDS011;42438;53.174;6.730;2022-12-17T01:35:15;62.58;;;21.73;;
56541;SDS011;42438;53.174;6.730;2022-12-17T01:38:14;69.50;;;24.25;;
56541;SDS011;42438;53.174;6.730;2022-12-17T01:41:07;57.78;;;20.88;;
56541;SDS011;42438;53.174;6.730;2022-12-17T01:43:56;61.58;;;21.35;;
56541;SDS011;42438;53.174;6.730;2022-12-17T01:46:47;68.03;;;21.58;;
56541;SDS011;42438;53.174;6.730;2022-12-17T01:49:38;64.82;;;24.33;;
56541;SDS011;42438;53.174;6.730;2022-12-17T01:52:27;67.95;;;24.83;;
56541;SDS011;42438;53.174;6.730;2022-12-17T01:55:17;75.25;;;25.02;;
56541;SDS011;42438;53.174;6.730;2022-12-17T01:58:06;79.63;;;24.45;;
56541;SDS011;42438;53.174;6.730;2022-12-17T02:00:56;76.93;;;24.35;;
56541;SDS011;42438;53.174;6.730;2022-12-17T02:03:45;77.60;;;25.58;;
56541;SDS011;42438;53.174;6.730;2022-12-17T02:06:34;73.35;;;25.15;;
56541;SDS011;42438;53.174;6.730;2022-12-17T02:09:31;72.25;;;24.08;;
56541;SDS011;42438;53.174;6.730;2022-12-17T02:12:46;71.85;;;23.77;;
56541;SDS011;42438;53.174;6.730;2022-12-17T02:15:45;73.68;;;24.23;;
56541;SDS011;42438;53.174;6.730;2022-12-17T02:18:43;68.60;;;24.55;;
56541;SDS011;42438;53.174;6.730;2022-12-17T02:21:37;78.95;;;25.85;;
56541;SDS011;42438;53.174;6.730;2022-12-17T02:24:40;90.25;;;26.65;;
56541;SDS011;42438;53.174;6.730;2022-12-17T02:27:41;80.10;;;24.50;;
56541;SDS011;42438;53.174;6.730;2022-12-17T02:30:30;80.13;;;24.15;;
56541;SDS011;42438;53.174;6.730;2022-12-17T02:33:20;80.20;;;25.40;;
56541;SDS011;42438;53.174;6.730;2022-12-17T02:36:09;79.13;;;26.27;;
56541;SDS011;42438;53.174;6.730;2022-12-17T02:38:59;81.05;;;24.10;;
56541;SDS011;42438;53.174;6.730;2022-12-17T02:41:49;79.85;;;25.55;;
56541;SDS011;42438;53.174;6.730;2022-12-17T02:44:41;79.53;;;24.48;;
56541;SDS011;42438;53.174;6.730;2022-12-17T02:47:31;72.47;;;23.77;;
56541;SDS011;42438;53.174;6.730;2022-12-17T02:50:20;79.35;;;25.92;;
56541;SDS011;42438;53.174;6.730;2022-12-17T02:53:18;70.40;;;22.63;;
56541;SDS011;42438;53.174;6.730;2022-12-17T02:56:07;67.47;;;23.98;;
56541;SDS011;42438;53.174;6.730;2022-12-17T02:58:57;72.38;;;24.38;;
56541;SDS011;42438;53.174;6.730;2022-12-17T03:01:46;66.40;;;23.48;;
56541;SDS011;42438;53.174;6.730;2022-12-17T03:04:37;76.82;;;24.08;;
56541;SDS011;42438;53.174;6.730;2022-12-17T03:07:26;75.00;;;24.10;;
56541;SDS011;42438;53.174;6.730;2022-12-17T03:10:15;71.25;;;23.33;;
56541;SDS011;42438;53.174;6.730;2022-12-17T03:13:05;66.40;;;24.25;;
56541;SDS011;42438;53.174;6.730;2022-12-17T03:15:54;68.18;;;23.88;;
56541;SDS011;42438;53.174;6.730;2022-12-17T03:18:43;73.88;;;24.30;;
56541;SDS011;42438;53.174;6.730;2022-12-17T03:21:33;71.47;;;24.10;;
56541;SDS011;42438;53.174;6.730;2022-12-17T03:24:22;71.40;;;22.98;;
56541;SDS011;42438;53.174;6.730;2022-12-17T03:27:12;69.70;;;24.45;;
56541;SDS011;42438;53.174;6.730;2022-12-17T03:30:02;71.68;;;24.50;;
56541;SDS011;42438;53.174;6.730;2022-12-17T03:32:51;64.70;;;22.50;;
56541;SDS011;42438;53.174;6.730;2022-12-17T03:35:40;70.93;;;24.10;;
56541;SDS011;42438;53.174;6.730;2022-12-17T03:38:30;59.15;;;22.13;;
56541;SDS011;42438;53.174;6.730;2022-12-17T03:41:19;72.13;;;24.05;;
56541;SDS011;42438;53.174;6.730;2022-12-17T03:44:09;64.43;;;25.25;;
56541;SDS011;42438;53.174;6.730;2022-12-17T03:46:58;66.25;;;24.05;;
56541;SDS011;42438;53.174;6.730;2022-12-17T03:49:47;65.45;;;24.50;;
56541;SDS011;42438;53.174;6.730;2022-12-17T03:52:37;74.50;;;25.38;;
56541;SDS011;42438;53.174;6.730;2022-12-17T03:55:26;72.25;;;25.67;;
56541;SDS011;42438;53.174;6.730;2022-12-17T03:58:15;64.38;;;23.42;;
56541;SDS011;42438;53.174;6.730;2022-12-17T04:01:05;75.18;;;24.95;;
56541;SDS011;42438;53.174;6.730;2022-12-17T04:03:54;78.15;;;25.60;;
56541;SDS011;42438;53.174;6.730;2022-12-17T04:06:44;61.25;;;23.55;;
56541;SDS011;42438;53.174;6.730;2022-12-17T04:09:33;67.70;;;24.83;;
56541;SDS011;42438;53.174;6.730;2022-12-17T04:12:22;76.38;;;26.42;;
56541;SDS011;42438;53.174;6.730;2022-12-17T04:15:11;70.30;;;24.42;;
56541;SDS011;42438;53.174;6.730;2022-12-17T04:18:01;79.82;;;26.60;;
56541;SDS011;42438;53.174;6.730;2022-12-17T04:20:50;79.80;;;24.75;;
56541;SDS011;42438;53.174;6.730;2022-12-17T04:23:40;69.00;;;24.88;;
56541;SDS011;42438;53.174;6.730;2022-12-17T04:26:29;66.35;;;24.38;;
56541;SDS011;42438;53.174;6.730;2022-12-17T04:29:18;81.40;;;25.70;;
56541;SDS011;42438;53.174;6.730;2022-12-17T04:32:08;68.18;;;23.92;;
56541;SDS011;42438;53.174;6.730;2022-12-17T04:34:57;72.80;;;25.23;;
56541;SDS011;42438;53.174;6.730;2022-12-17T04:37:46;66.43;;;22.77;;
56541;SDS011;42438;53.174;6.730;2022-12-17T04:40:37;63.10;;;22.77;;
56541;SDS011;42438;53.174;6.730;2022-12-17T04:43:26;67.13;;;23.55;;
56541;SDS011;42438;53.174;6.730;2022-12-17T04:46:15;62.58;;;22.10;;
56541;SDS011;42438;53.174;6.730;2022-12-17T04:49:04;71.15;;;25.60;;
56541;SDS011;42438;53.174;6.730;2022-12-17T04:51:54;67.85;;;23.45;;
56541;SDS011;42438;53.174;6.730;2022-12-17T04:54:43;62.88;;;23.75;;
56541;SDS011;42438;53.174;6.730;2022-12-17T04:57:32;66.90;;;23.63;;
56541;SDS011;42438;53.174;6.730;2022-12-17T05:00:22;65.47;;;23.70;;
56541;SDS011;42438;53.174;6.730;2022-12-17T05:03:12;72.07;;;24.02;;
56541;SDS011;42438;53.174;6.730;2022-12-17T05:06:02;66.97;;;23.67;;
56541;SDS011;42438;53.174;6.730;2022-12-17T05:08:52;71.22;;;24.73;;
56541;SDS011;42438;53.174;6.730;2022-12-17T05:11:41;73.55;;;25.05;;
56541;SDS011;42438;53.174;6.730;2022-12-17T05:14:30;71.18;;;25.00;;
56541;SDS011;42438;53.174;6.730;2022-12-17T05:17:20;75.13;;;25.92;;
56541;SDS011;42438;53.174;6.730;2022-12-17T05:20:09;72.07;;;25.50;;
56541;SDS011;42438;53.174;6.730;2022-12-17T05:23:05;72.03;;;24.85;;
56541;SDS011;42438;53.174;6.730;2022-12-17T05:26:01;74.35;;;24.48;;
56541;SDS011;42438;53.174;6.730;2022-12-17T05:28:52;71.10;;;25.50;;
56541;SDS011;42438;53.174;6.730;2022-12-17T05:31:42;68.55;;;25.33;;
56541;SDS011;42438;53.174;6.730;2022-12-17T05:34:31;69.80;;;26.90;;
56541;SDS011;42438;53.174;6.730;2022-12-17T05:37:37;71.60;;;24.55;;
56541;SDS011;42438;53.174;6.730;2022-12-17T05:40:27;69.03;;;24.23;;
56541;SDS011;42438;53.174;6.730;2022-12-17T05:43:16;65.00;;;24.08;;
56541;SDS011;42438;53.174;6.730;2022-12-17T05:46:05;73.05;;;24.17;;
56541;SDS011;42438;53.174;6.730;2022-12-17T05:48:55;65.63;;;24.33;;
56541;SDS011;42438;53.174;6.730;2022-12-17T05:51:44;62.75;;;22.92;;
56541;SDS011;42438;53.174;6.730;2022-12-17T05:54:33;71.53;;;25.00;;
56541;SDS011;42438;53.174;6.730;2022-12-17T05:57:23;72.35;;;24.70;;
56541;SDS011;42438;53.174;6.730;2022-12-17T06:00:12;73.32;;;26.38;;
56541;SDS011;42438;53.174;6.730;2022-12-17T06:03:02;72.75;;;25.05;;
56541;SDS011;42438;53.174;6.730;2022-12-17T06:05:53;66.70;;;25.10;;
56541;SDS011;42438;53.174;6.730;2022-12-17T06:08:42;69.03;;;25.52;;
56541;SDS011;42438;53.174;6.730;2022-12-17T06:11:32;78.40;;;27.27;;
56541;SDS011;42438;53.174;6.730;2022-12-17T06:14:21;73.13;;;24.27;;
56541;SDS011;42438;53.174;6.730;2022-12-17T06:17:11;69.15;;;24.45;;
56541;SDS011;42438;53.174;6.730;2022-12-17T06:20:00;68.15;;;25.60;;
56541;SDS011;42438;53.174;6.730;2022-12-17T06:23:08;71.80;;;26.50;;
56541;SDS011;42438;53.174;6.730;2022-12-17T06:25:58;68.18;;;25.55;;
56541;SDS011;42438;53.174;6.730;2022-12-17T06:28:47;69.20;;;24.98;;
56541;SDS011;42438;53.174;6.730;2022-12-17T06:31:37;74.63;;;27.25;;
56541;SDS011;42438;53.174;6.730;2022-12-17T06:34:43;68.13;;;26.15;;
56541;SDS011;42438;53.174;6.730;2022-12-17T06:37:32;65.63;;;24.20;;
56541;SDS011;42438;53.174;6.730;2022-12-17T06:40:22;73.05;;;27.83;;
56541;SDS011;42438;53.174;6.730;2022-12-17T06:43:11;63.95;;;24.15;;
56541;SDS011;42438;53.174;6.730;2022-12-17T06:46:01;72.35;;;27.13;;
56541;SDS011;42438;53.174;6.730;2022-12-17T06:48:50;70.35;;;23.20;;
56541;SDS011;42438;53.174;6.730;2022-12-17T06:51:39;76.63;;;26.25;;
56541;SDS011;42438;53.174;6.730;2022-12-17T06:54:29;78.68;;;26.10;;
56541;SDS011;42438;53.174;6.730;2022-12-17T06:57:18;75.25;;;24.98;;
56541;SDS011;42438;53.174;6.730;2022-12-17T07:00:08;73.32;;;24.98;;
56541;SDS011;42438;53.174;6.730;2022-12-17T07:02:58;71.13;;;25.50;;
56541;SDS011;42438;53.174;6.730;2022-12-17T07:05:47;67.32;;;24.55;;
56541;SDS011;42438;53.174;6.730;2022-12-17T07:08:36;64.55;;;24.02;;
56541;SDS011;42438;53.174;6.730;2022-12-17T07:11:45;71.43;;;24.55;;
56541;SDS011;42438;53.174;6.730;2022-12-17T07:14:35;94.43;;;31.13;;
56541;SDS011;42438;53.174;6.730;2022-12-17T07:17:24;76.38;;;26.60;;
56541;SDS011;42438;53.174;6.730;2022-12-17T07:20:14;65.35;;;23.80;;
56541;SDS011;42438;53.174;6.730;2022-12-17T07:23:03;86.68;;;30.73;;
56541;SDS011;42438;53.174;6.730;2022-12-17T07:25:52;80.40;;;26.52;;
56541;SDS011;42438;53.174;6.730;2022-12-17T07:31:35;81.60;;;30.13;;
56541;SDS011;42438;53.174;6.730;2022-12-17T07:34:25;75.90;;;28.50;;
56541;SDS011;42438;53.174;6.730;2022-12-17T07:37:15;84.68;;;28.45;;
56541;SDS011;42438;53.174;6.730;2022-12-17T07:40:04;86.53;;;29.33;;
56541;SDS011;42438;53.174;6.730;2022-12-17T07:42:54;82.65;;;25.98;;
56541;SDS011;42438;53.174;6.730;2022-12-17T07:45:43;79.25;;;25.77;;
56541;SDS011;42438;53.174;6.730;2022-12-17T07:48:52;75.93;;;24.90;;
56541;SDS011;42438;53.174;6.730;2022-12-17T07:51:42;80.90;;;27.08;;
56541;SDS011;42438;53.174;6.730;2022-12-17T07:54:31;75.50;;;25.27;;
56541;SDS011;42438;53.174;6.730;2022-12-17T07:57:20;75.88;;;26.48;;
56541;SDS011;42438;53.174;6.730;2022-12-17T08:00:10;81.05;;;26.52;;
56541;SDS011;42438;53.174;6.730;2022-12-17T08:03:00;76.90;;;26.80;;
56541;SDS011;42438;53.174;6.730;2022-12-17T08:05:50;77.90;;;25.23;;
56541;SDS011;42438;53.174;6.730;2022-12-17T08:08:39;82.57;;;26.45;;
56541;SDS011;42438;53.174;6.730;2022-12-17T08:11:28;83.15;;;25.13;;
56541;SDS011;42438;53.174;6.730;2022-12-17T08:14:18;73.70;;;26.95;;
56541;SDS011;42438;53.174;6.730;2022-12-17T08:17:07;77.68;;;25.33;;
56541;SDS011;42438;53.174;6.730;2022-12-17T08:19:56;76.85;;;26.65;;
56541;SDS011;42438;53.174;6.730;2022-12-17T08:22:46;76.47;;;24.15;;
56541;SDS011;42438;53.174;6.730;2022-12-17T08:25:35;73.30;;;25.27;;
56541;SDS011;42438;53.174;6.730;2022-12-17T08:28:24;78.28;;;26.63;;
56541;SDS011;42438;53.174;6.730;2022-12-17T08:31:14;79.78;;;25.55;;
56541;SDS011;42438;53.174;6.730;2022-12-17T08:34:03;110.28;;;35.28;;
56541;SDS011;42438;53.174;6.730;2022-12-17T08:36:52;77.72;;;25.00;;
56541;SDS011;42438;53.174;6.730;2022-12-17T08:39:42;71.53;;;25.58;;
56541;SDS011;42438;53.174;6.730;2022-12-17T08:42:31;71.20;;;25.00;;
56541;SDS011;42438;53.174;6.730;2022-12-17T08:45:21;89.03;;;26.48;;
56541;SDS011;42438;53.174;6.730;2022-12-17T08:48:10;80.28;;;25.55;;
56541;SDS011;42438;53.174;6.730;2022-12-17T08:50:59;80.10;;;25.48;;
56541;SDS011;42438;53.174;6.730;2022-12-17T08:53:49;74.45;;;23.65;;
56541;SDS011;42438;53.174;6.730;2022-12-17T08:56:38;89.18;;;25.15;;
56541;SDS011;42438;53.174;6.730;2022-12-17T08:59:28;76.32;;;27.20;;
56541;SDS011;42438;53.174;6.730;2022-12-17T09:02:17;80.50;;;24.73;;
56541;SDS011;42438;53.174;6.730;2022-12-17T09:05:07;79.15;;;24.52;;
56541;SDS011;42438;53.174;6.730;2022-12-17T09:08:05;85.15;;;28.60;;
56541;SDS011;42438;53.174;6.730;2022-12-17T09:10:57;74.00;;;23.90;;
56541;SDS011;42438;53.174;6.730;2022-12-17T09:13:47;86.60;;;26.00;;
56541;SDS011;42438;53.174;6.730;2022-12-17T09:16:37;86.55;;;26.23;;
56541;SDS011;42438;53.174;6.730;2022-12-17T09:19:26;72.47;;;24.90;;
56541;SDS011;42438;53.174;6.730;2022-12-17T09:22:15;81.38;;;23.98;;
56541;SDS011;42438;53.174;6.730;2022-12-17T09:25:05;72.57;;;25.85;;
56541;SDS011;42438;53.174;6.730;2022-12-17T09:27:58;72.13;;;23.10;;
56541;SDS011;42438;53.174;6.730;2022-12-17T09:30:48;77.20;;;24.52;;
56541;SDS011;42438;53.174;6.730;2022-12-17T09:33:37;71.55;;;23.38;;
56541;SDS011;42438;53.174;6.730;2022-12-17T09:36:27;68.57;;;23.17;;
56541;SDS011;42438;53.174;6.730;2022-12-17T09:39:16;78.30;;;24.00;;
56541;SDS011;42438;53.174;6.730;2022-12-17T09:42:11;73.97;;;22.42;;
56541;SDS011;42438;53.174;6.730;2022-12-17T09:45:08;77.95;;;24.65;;
56541;SDS011;42438;53.174;6.730;2022-12-17T09:48:13;83.07;;;28.02;;
56541;SDS011;42438;53.174;6.730;2022-12-17T09:51:24;76.70;;;26.02;;
56541;SDS011;42438;53.174;6.730;2022-12-17T09:54:32;74.37;;;23.97;;
56541;SDS011;42438;53.174;6.730;2022-12-17T09:57:28;83.05;;;26.55;;
56541;SDS011;42438;53.174;6.730;2022-12-17T10:00:26;71.10;;;26.05;;
56541;SDS011;42438;53.174;6.730;2022-12-17T10:03:17;80.65;;;27.35;;
56541;SDS011;42438;53.174;6.730;2022-12-17T10:06:09;95.45;;;31.20;;
56541;SDS011;42438;53.174;6.730;2022-12-17T10:09:01;82.47;;;27.13;;
56541;SDS011;42438;53.174;6.730;2022-12-17T10:12:11;85.60;;;27.20;;
56541;SDS011;42438;53.174;6.730;2022-12-17T10:15:03;78.85;;;24.27;;
56541;SDS011;42438;53.174;6.730;2022-12-17T10:17:53;82.57;;;26.00;;
56541;SDS011;42438;53.174;6.730;2022-12-17T10:20:45;80.07;;;26.10;;
56541;SDS011;42438;53.174;6.730;2022-12-17T10:23:41;78.40;;;24.67;;
56541;SDS011;42438;53.174;6.730;2022-12-17T10:26:31;66.05;;;22.20;;
56541;SDS011;42438;53.174;6.730;2022-12-17T10:29:23;68.40;;;23.52;;
56541;SDS011;42438;53.174;6.730;2022-12-17T10:35:08;63.90;;;23.35;;
56541;SDS011;42438;53.174;6.730;2022-12-17T10:38:12;69.90;;;23.25;;
56541;SDS011;42438;53.174;6.730;2022-12-17T10:41:28;74.97;;;24.30;;
56541;SDS011;42438;53.174;6.730;2022-12-17T10:44:26;74.75;;;25.42;;
56541;SDS011;42438;53.174;6.730;2022-12-17T10:47:18;73.80;;;24.77;;
56541;SDS011;42438;53.174;6.730;2022-12-17T10:50:19;72.32;;;25.05;;
56541;SDS011;42438;53.174;6.730;2022-12-17T10:53:17;81.57;;;27.08;;
56541;SDS011;42438;53.174;6.730;2022-12-17T10:56:21;81.28;;;27.35;;
56541;SDS011;42438;53.174;6.730;2022-12-17T10:59:23;144.13;;;42.80;;
56541;SDS011;42438;53.174;6.730;2022-12-17T11:02:19;138.70;;;40.60;;
56541;SDS011;42438;53.174;6.730;2022-12-17T11:05:21;147.15;;;41.35;;
56541;SDS011;42438;53.174;6.730;2022-12-17T11:08:15;238.10;;;63.50;;
56541;SDS011;42438;53.174;6.730;2022-12-17T11:11:06;93.65;;;34.25;;
56541;SDS011;42438;53.174;6.730;2022-12-17T11:14:00;99.72;;;34.05;;
56541;SDS011;42438;53.174;6.730;2022-12-17T11:16:53;103.22;;;34.75;;
56541;SDS011;42438;53.174;6.730;2022-12-17T11:19:49;96.43;;;28.42;;
56541;SDS011;42438;53.174;6.730;2022-12-17T11:22:43;87.25;;;28.88;;
56541;SDS011;42438;53.174;6.730;2022-12-17T11:25:46;74.22;;;27.98;;
56541;SDS011;42438;53.174;6.730;2022-12-17T11:28:38;82.90;;;28.25;;
56541;SDS011;42438;53.174;6.730;2022-12-17T11:40:41;84.40;;;29.63;;
56541;SDS011;42438;53.174;6.730;2022-12-17T11:43:35;76.38;;;28.23;;
56541;SDS011;42438;53.174;6.730;2022-12-17T11:52:54;76.88;;;26.42;;
56541;SDS011;42438;53.174;6.730;2022-12-17T11:56:09;81.15;;;28.48;;
56541;SDS011;42438;53.174;6.730;2022-12-17T12:02:31;76.75;;;27.13;;
56541;SDS011;42438;53.174;6.730;2022-12-17T12:05:36;77.85;;;26.65;;
56541;SDS011;42438;53.174;6.730;2022-12-17T12:18:32;75.82;;;26.38;;
56541;SDS011;42438;53.174;6.730;2022-12-17T12:22:17;70.28;;;25.48;;
56541;SDS011;42438;53.174;6.730;2022-12-17T12:25:08;78.32;;;28.35;;
56541;SDS011;42438;53.174;6.730;2022-12-17T12:31:46;76.53;;;27.67;;
56541;SDS011;42438;53.174;6.730;2022-12-17T12:34:48;83.57;;;27.50;;
56541;SDS011;42438;53.174;6.730;2022-12-17T12:37:40;80.07;;;28.30;;
56541;SDS011;42438;53.174;6.730;2022-12-17T12:40:41;76.18;;;28.80;;
56541;SDS011;42438;53.174;6.730;2022-12-17T12:43:39;79.38;;;26.15;;
56541;SDS011;42438;53.174;6.730;2022-12-17T12:49:58;79.28;;;27.33;;
56541;SDS011;42438;53.174;6.730;2022-12-17T12:53:01;72.47;;;26.60;;
56541;SDS011;42438;53.174;6.730;2022-12-17T12:55:51;75.75;;;27.27;;
56541;SDS011;42438;53.174;6.730;2022-12-17T12:58:41;76.40;;;27.83;;
56541;SDS011;42438;53.174;6.730;2022-12-17T13:01:34;74.35;;;27.05;;
56541;SDS011;42438;53.174;6.730;2022-12-17T13:04:28;72.97;;;27.05;;
56541;SDS011;42438;53.174;6.730;2022-12-17T13:09:55;67.57;;;26.83;;
56541;SDS011;42438;53.174;6.730;2022-12-17T13:12:28;70.47;;;26.67;;
56541;SDS011;42438;53.174;6.730;2022-12-17T13:17:58;96.40;;;32.28;;
56541;SDS011;42438;53.174;6.730;2022-12-17T13:20:55;104.10;;;35.53;;
56541;SDS011;42438;53.174;6.730;2022-12-17T13:23:34;128.63;;;42.78;;
56541;SDS011;42438;53.174;6.730;2022-12-17T13:31:26;133.80;;;44.67;;
56541;SDS011;42438;53.174;6.730;2022-12-17T13:36:55;127.10;;;39.22;;
56541;SDS011;42438;53.174;6.730;2022-12-17T13:42:27;105.28;;;36.30;;
56541;SDS011;42438;53.174;6.730;2022-12-17T13:45:00;241.13;;;69.35;;
56541;SDS011;42438;53.174;6.730;2022-12-17T13:47:32;145.40;;;46.40;;
56541;SDS011;42438;53.174;6.730;2022-12-17T13:50:17;137.32;;;43.25;;
56541;SDS011;42438;53.174;6.730;2022-12-17T13:52:51;144.85;;;49.38;;
56541;SDS011;42438;53.174;6.730;2022-12-17T13:55:23;147.48;;;45.45;;
56541;SDS011;42438;53.174;6.730;2022-12-17T13:57:55;148.77;;;45.65;;
56541;SDS011;42438;53.174;6.730;2022-12-17T14:00:28;172.52;;;49.58;;
56541;SDS011;42438;53.174;6.730;2022-12-17T14:03:08;160.13;;;51.67;;
56541;SDS011;42438;53.174;6.730;2022-12-17T14:05:42;136.00;;;44.10;;
56541;SDS011;42438;53.174;6.730;2022-12-17T14:08:17;114.63;;;36.47;;
56541;SDS011;42438;53.174;6.730;2022-12-17T14:10:50;127.78;;;41.40;;
56541;SDS011;42438;53.174;6.730;2022-12-17T14:13:43;167.35;;;47.95;;
56541;SDS011;42438;53.174;6.730;2022-12-17T14:18:52;85.25;;;30.95;;
56541;SDS011;42438;53.174;6.730;2022-12-17T14:21:26;79.88;;;29.50;;
56541;SDS011;42438;53.174;6.730;2022-12-17T14:23:58;106.78;;;36.92;;
56541;SDS011;42438;53.174;6.730;2022-12-17T14:26:28;86.15;;;29.15;;
56541;SDS011;42438;53.174;6.730;2022-12-17T14:28:59;88.03;;;30.65;;
56541;SDS011;42438;53.174;6.730;2022-12-17T14:31:30;95.53;;;33.78;;
56541;SDS011;42438;53.174;6.730;2022-12-17T14:34:04;124.43;;;37.42;;
56541;SDS011;42438;53.174;6.730;2022-12-17T14:36:37;120.68;;;38.90;;
56541;SDS011;42438;53.174;6.730;2022-12-17T14:39:17;130.60;;;40.55;;
56541;SDS011;42438;53.174;6.730;2022-12-17T14:42:06;231.95;;;63.25;;
56541;SDS011;42438;53.174;6.730;2022-12-17T14:44:57;133.77;;;40.28;;
56541;SDS011;42438;53.174;6.730;2022-12-17T14:47:30;244.63;;;79.93;;
56541;SDS011;42438;53.174;6.730;2022-12-17T14:52:43;161.57;;;52.13;;
56541;SDS011;42438;53.174;6.730;2022-12-17T14:58:08;99.95;;;36.80;;
56541;SDS011;42438;53.174;6.730;2022-12-17T15:00:49;96.10;;;35.88;;
56541;SDS011;42438;53.174;6.730;2022-12-17T15:03:24;84.93;;;31.95;;
56541;SDS011;42438;53.174;6.730;2022-12-17T15:05:57;103.78;;;35.58;;
56541;SDS011;42438;53.174;6.730;2022-12-17T15:08:35;81.80;;;31.67;;
56541;SDS011;42438;53.174;6.730;2022-12-17T15:11:13;80.43;;;27.30;;
56541;SDS011;42438;53.174;6.730;2022-12-17T15:13:46;68.95;;;24.95;;
56541;SDS011;42438;53.174;6.730;2022-12-17T15:16:16;67.72;;;25.08;;
56541;SDS011;42438;53.174;6.730;2022-12-17T15:18:47;74.80;;;25.58;;
56541;SDS011;42438;53.174;6.730;2022-12-17T15:21:18;68.80;;;24.25;;
56541;SDS011;42438;53.174;6.730;2022-12-17T15:23:49;74.95;;;26.05;;
56541;SDS011;42438;53.174;6.730;2022-12-17T15:26:20;76.03;;;27.30;;
56541;SDS011;42438;53.174;6.730;2022-12-17T15:28:51;74.50;;;26.52;;
56541;SDS011;42438;53.174;6.730;2022-12-17T15:31:22;76.35;;;28.63;;
56541;SDS011;42438;53.174;6.730;2022-12-17T15:33:52;80.88;;;28.65;;
56541;SDS011;42438;53.174;6.730;2022-12-17T15:36:23;72.60;;;27.38;;
56541;SDS011;42438;53.174;6.730;2022-12-17T15:38:54;70.35;;;25.60;;
56541;SDS011;42438;53.174;6.730;2022-12-17T15:41:24;74.88;;;27.60;;
56541;SDS011;42438;53.174;6.730;2022-12-17T15:44:13;69.68;;;24.27;;
56541;SDS011;42438;53.174;6.730;2022-12-17T15:46:44;78.47;;;27.55;;
56541;SDS011;42438;53.174;6.730;2022-12-17T15:49:14;71.07;;;23.50;;
56541;SDS011;42438;53.174;6.730;2022-12-17T15:51:45;75.18;;;25.50;;
56541;SDS011;42438;53.174;6.730;2022-12-17T15:54:16;74.07;;;25.60;;
56541;SDS011;42438;53.174;6.730;2022-12-17T15:56:53;78.63;;;27.60;;
56541;SDS011;42438;53.174;6.730;2022-12-17T15:59:25;78.30;;;27.27;;
56541;SDS011;42438;53.174;6.730;2022-12-17T16:01:55;65.75;;;23.85;;
56541;SDS011;42438;53.174;6.730;2022-12-17T16:04:26;117.05;;;38.53;;
56541;SDS011;42438;53.174;6.730;2022-12-17T16:06:57;120.95;;;39.28;;
56541;SDS011;42438;53.174;6.730;2022-12-17T16:09:28;211.20;;;61.03;;
56541;SDS011;42438;53.174;6.730;2022-12-17T16:11:59;134.30;;;43.08;;
56541;SDS011;42438;53.174;6.730;2022-12-17T16:14:29;100.00;;;33.97;;
56541;SDS011;42438;53.174;6.730;2022-12-17T16:17:00;75.07;;;24.77;;
56541;SDS011;42438;53.174;6.730;2022-12-17T16:19:31;78.88;;;27.20;;
56541;SDS011;42438;53.174;6.730;2022-12-17T16:22:02;68.72;;;25.20;;
56541;SDS011;42438;53.174;6.730;2022-12-17T16:24:33;71.65;;;24.92;;
56541;SDS011;42438;53.174;6.730;2022-12-17T16:27:03;76.55;;;25.15;;
56541;SDS011;42438;53.174;6.730;2022-12-17T16:29:34;73.70;;;24.08;;
56541;SDS011;42438;53.174;6.730;2022-12-17T16:32:04;66.95;;;22.65;;
56541;SDS011;42438;53.174;6.730;2022-12-17T16:34:35;69.07;;;23.92;;
56541;SDS011;42438;53.174;6.730;2022-12-17T16:37:06;72.57;;;24.73;;
56541;SDS011;42438;53.174;6.730;2022-12-17T16:39:36;85.22;;;26.17;;
56541;SDS011;42438;53.174;6.730;2022-12-17T16:42:07;75.18;;;23.85;;
56541;SDS011;42438;53.174;6.730;2022-12-17T16:44:38;70.28;;;23.27;;
56541;SDS011;42438;53.174;6.730;2022-12-17T16:47:09;74.00;;;21.92;;
56541;SDS011;42438;53.174;6.730;2022-12-17T16:49:40;82.25;;;24.95;;
56541;SDS011;42438;53.174;6.730;2022-12-17T16:52:10;68.50;;;24.60;;
56541;SDS011;42438;53.174;6.730;2022-12-17T16:54:41;76.50;;;22.30;;
56541;SDS011;42438;53.174;6.730;2022-12-17T16:57:12;68.82;;;22.55;;
56541;SDS011;42438;53.174;6.730;2022-12-17T16:59:42;76.43;;;24.25;;
56541;SDS011;42438;53.174;6.730;2022-12-17T17:02:13;69.10;;;21.77;;
56541;SDS011;42438;53.174;6.730;2022-12-17T17:04:45;73.43;;;22.92;;
56541;SDS011;42438;53.174;6.730;2022-12-17T17:07:15;70.45;;;22.88;;
56541;SDS011;42438;53.174;6.730;2022-12-17T17:09:46;74.70;;;24.27;;
56541;SDS011;42438;53.174;6.730;2022-12-17T17:12:17;72.53;;;24.83;;
56541;SDS011;42438;53.174;6.730;2022-12-17T17:14:47;74.35;;;22.95;;
56541;SDS011;42438;53.174;6.730;2022-12-17T17:17:21;66.53;;;21.67;;
56541;SDS011;42438;53.174;6.730;2022-12-17T17:19:51;130.95;;;36.17;;
56541;SDS011;42438;53.174;6.730;2022-12-17T17:22:22;79.07;;;25.15;;
56541;SDS011;42438;53.174;6.730;2022-12-17T17:24:53;87.45;;;26.02;;